createdAt,value
2023-04-21T00:00:21.762Z,1.41
2023-04-21T00:01:21.958Z,1.47
2023-04-21T00:02:21.865Z,1.46
2023-04-21T00:03:21.902Z,1.90
2023-04-21T00:04:21.913Z,1.84
2023-04-21T00:05:21.960Z,1.80
2023-04-21T00:06:21.793Z,1.68
2023-04-21T00:07:21.762Z,1.83
2023-04-21T00:08:21.760Z,1.98
2023-04-21T00:09:21.924Z,1.72
2023-04-21T00:10:21.766Z,1.75
2023-04-21T00:11:21.764Z,1.65
2023-04-21T00:12:21.757Z,1.67
2023-04-21T00:13:21.831Z,1.55
2023-04-21T00:14:21.871Z,1.64
2023-04-21T00:15:21.962Z,1.68
2023-04-21T00:16:22.092Z,1.37
2023-04-21T00:17:22.084Z,1.48
2023-04-21T00:18:22.140Z,1.64
2023-04-21T00:19:22.214Z,1.56
2023-04-21T00:20:22.267Z,1.60
2023-04-21T00:21:22.339Z,1.61
2023-04-21T00:22:22.394Z,1.40
2023-04-21T00:23:22.442Z,1.60
2023-04-21T00:24:22.503Z,1.67
2023-04-21T00:25:22.567Z,1.49
2023-04-21T00:26:22.646Z,1.36
2023-04-21T00:27:22.713Z,1.55
2023-04-21T00:28:22.772Z,2.11
2023-04-21T00:29:22.869Z,1.76
2023-04-21T00:30:22.899Z,1.56
2023-04-21T00:31:22.981Z,1.56
2023-04-21T00:32:23.068Z,1.67
2023-04-21T00:33:23.101Z,1.71
2023-04-21T00:34:23.150Z,1.41
2023-04-21T00:35:23.214Z,1.74
2023-04-21T00:36:23.286Z,1.58
2023-04-21T00:37:23.345Z,1.69
2023-04-21T00:38:23.407Z,1.46
2023-04-21T00:39:23.465Z,1.71
2023-04-21T00:40:24.261Z,1.26
2023-04-21T00:41:23.601Z,1.53
2023-04-21T00:42:23.640Z,1.63
2023-04-21T00:43:23.700Z,1.72
2023-04-21T00:44:23.754Z,1.51
2023-04-21T00:45:23.834Z,1.47
2023-04-21T00:46:23.908Z,1.46
2023-04-21T00:47:23.971Z,1.60
2023-04-21T00:48:23.990Z,1.78
2023-04-21T00:49:24.046Z,1.84
2023-04-21T00:50:24.099Z,1.23
2023-04-21T00:51:24.166Z,1.71
2023-04-21T00:52:24.256Z,1.57
2023-04-21T00:53:24.309Z,1.58
2023-04-21T00:54:24.361Z,1.53
2023-04-21T00:55:24.413Z,1.42
2023-04-21T00:56:24.534Z,1.62
2023-04-21T00:57:24.532Z,1.54
2023-04-21T00:58:24.579Z,1.82
2023-04-21T00:59:24.660Z,1.69
2023-04-21T01:00:24.706Z,1.33
2023-04-21T01:01:24.830Z,1.72
2023-04-21T01:02:24.915Z,1.50
2023-04-21T01:03:25.149Z,1.69
2023-04-21T01:04:25.029Z,1.44
2023-04-21T01:05:24.996Z,1.51
2023-04-21T01:06:25.048Z,2.12
2023-04-21T01:07:25.124Z,1.83
2023-04-21T01:08:25.180Z,1.87
2023-04-21T01:09:25.251Z,1.69
2023-04-21T01:10:25.312Z,1.47
2023-04-21T01:11:25.378Z,1.52
2023-04-21T01:12:25.445Z,1.37
2023-04-21T01:13:25.498Z,2.03
2023-04-21T01:14:25.543Z,2.07
2023-04-21T01:15:25.606Z,1.69
2023-04-21T01:16:25.692Z,1.75
2023-04-21T01:17:25.754Z,1.74
2023-04-21T01:18:25.791Z,1.46
2023-04-21T01:19:25.855Z,1.73
2023-04-21T01:20:25.911Z,1.74
2023-04-21T01:21:25.966Z,1.48
2023-04-21T01:22:27.146Z,1.73
2023-04-21T01:23:26.089Z,1.60
2023-04-21T01:24:26.148Z,1.69
2023-04-21T01:25:26.199Z,1.82
2023-04-21T01:26:26.288Z,1.65
2023-04-21T01:27:26.315Z,1.91
2023-04-21T01:28:26.385Z,1.67
2023-04-21T01:29:26.453Z,2.01
2023-04-21T01:30:26.525Z,1.83
2023-04-21T01:31:27.468Z,1.67
2023-04-21T01:32:26.772Z,1.72
2023-04-21T01:33:26.719Z,1.55
2023-04-21T01:34:26.733Z,1.88
2023-04-21T01:35:27.184Z,1.76
2023-04-21T01:36:27.183Z,1.92
2023-04-21T01:37:27.194Z,1.74
2023-04-21T01:38:27.209Z,1.50
2023-04-21T01:39:27.190Z,1.86
2023-04-21T01:40:27.195Z,1.85
2023-04-21T01:41:27.189Z,1.34
2023-04-21T01:42:27.225Z,1.45
2023-04-21T01:43:27.253Z,1.69
2023-04-21T01:44:27.320Z,1.83
2023-04-21T01:45:27.408Z,1.62
2023-04-21T01:46:27.562Z,1.60
2023-04-21T01:47:27.490Z,1.90
2023-04-21T01:48:27.559Z,1.73
2023-04-21T01:49:27.667Z,1.67
2023-04-21T01:50:27.669Z,1.91
2023-04-21T01:51:28.082Z,1.76
2023-04-21T01:52:28.125Z,1.78
2023-04-21T01:53:28.133Z,1.51
2023-04-21T01:54:28.128Z,1.95
2023-04-21T01:55:28.800Z,1.87
2023-04-21T01:56:28.152Z,2.05
2023-04-21T01:57:28.137Z,1.65
2023-04-21T01:58:28.153Z,1.87
2023-04-21T01:59:28.204Z,1.65
2023-04-21T02:00:28.279Z,1.91
2023-04-21T02:01:28.354Z,1.75
2023-04-21T02:02:28.476Z,1.80
2023-04-21T02:03:28.588Z,2.09
2023-04-21T02:04:28.586Z,2.02
2023-04-21T02:05:28.583Z,1.85
2023-04-21T02:06:28.623Z,1.75
2023-04-21T02:07:28.678Z,2.04
2023-04-21T02:08:28.732Z,2.00
2023-04-21T02:09:29.335Z,1.79
2023-04-21T02:10:29.809Z,1.64
2023-04-21T02:11:28.920Z,1.73
2023-04-21T02:12:28.973Z,1.69
2023-04-21T02:13:29.041Z,2.44
2023-04-21T02:14:29.094Z,1.58
2023-04-21T02:15:29.197Z,2.04
2023-04-21T02:16:29.245Z,2.49
2023-04-21T02:17:29.272Z,1.74
2023-04-21T02:18:29.320Z,2.01
2023-04-21T02:19:29.383Z,2.11
2023-04-21T02:20:29.458Z,1.82
2023-04-21T02:21:29.844Z,1.84
2023-04-21T02:22:29.574Z,1.91
2023-04-21T02:23:29.630Z,1.90
2023-04-21T02:24:30.309Z,2.22
2023-04-21T02:25:29.750Z,1.76
2023-04-21T02:26:29.811Z,1.97
2023-04-21T02:27:29.868Z,1.68
2023-04-21T02:28:29.927Z,2.31
2023-04-21T02:29:29.980Z,2.27
2023-04-21T02:30:30.031Z,2.05
2023-04-21T02:31:30.178Z,1.61
2023-04-21T02:32:30.339Z,1.85
2023-04-21T02:33:30.848Z,1.99
2023-04-21T02:34:30.291Z,1.88
2023-04-21T02:35:30.341Z,2.13
2023-04-21T02:36:30.402Z,1.84
2023-04-21T02:37:30.583Z,2.14
2023-04-21T02:38:30.526Z,1.79
2023-04-21T02:39:30.590Z,2.04
2023-04-21T02:40:31.313Z,2.16
2023-04-21T02:41:30.754Z,2.20
2023-04-21T02:42:31.319Z,1.81
2023-04-21T02:43:30.833Z,1.62
2023-04-21T02:44:30.882Z,1.99
2023-04-21T02:45:30.953Z,1.86
2023-04-21T02:46:31.055Z,2.02
2023-04-21T02:47:31.100Z,2.08
2023-04-21T02:48:31.108Z,2.01
2023-04-21T02:49:31.188Z,1.82
2023-04-21T02:50:31.231Z,1.73
2023-04-21T02:51:31.287Z,1.83
2023-04-21T02:52:31.354Z,1.88
2023-04-21T02:53:31.428Z,1.93
2023-04-21T02:54:31.466Z,1.92
2023-04-21T02:55:31.534Z,1.99
2023-04-21T02:56:31.581Z,2.13
2023-04-21T02:57:31.641Z,2.25
2023-04-21T02:58:31.711Z,2.17
2023-04-21T02:59:31.768Z,1.77
2023-04-21T03:00:31.864Z,2.10
2023-04-21T03:01:31.914Z,2.14
2023-04-21T03:02:32.068Z,2.09
2023-04-21T03:03:32.223Z,2.61
2023-04-21T03:04:32.260Z,2.10
2023-04-21T03:05:32.161Z,2.17
2023-04-21T03:06:32.238Z,1.96
2023-04-21T03:07:33.184Z,2.14
2023-04-21T03:08:32.364Z,1.98
2023-04-21T03:09:32.440Z,2.23
2023-04-21T03:10:32.471Z,1.85
2023-04-21T03:11:32.525Z,2.12
2023-04-21T03:12:32.590Z,2.12
2023-04-21T03:13:32.655Z,2.28
2023-04-21T03:14:32.712Z,1.84
2023-04-21T03:15:33.142Z,2.13
2023-04-21T03:16:33.248Z,1.80
2023-04-21T03:17:33.486Z,2.17
2023-04-21T03:18:33.182Z,1.93
2023-04-21T03:19:33.226Z,1.88
2023-04-21T03:20:40.120Z,2.20
2023-04-21T03:21:33.189Z,2.27
2023-04-21T03:22:33.193Z,1.96
2023-04-21T03:23:34.129Z,1.81
2023-04-21T03:24:33.194Z,2.07
2023-04-21T03:25:33.355Z,1.79
2023-04-21T03:26:33.194Z,1.91
2023-04-21T03:27:33.184Z,1.95
2023-04-21T03:28:33.193Z,2.09
2023-04-21T03:29:33.344Z,2.07
2023-04-21T03:30:33.209Z,2.08
2023-04-21T03:31:33.367Z,2.27
2023-04-21T03:32:33.384Z,2.35
2023-04-21T03:33:33.390Z,1.76
2023-04-21T03:34:33.455Z,2.21
2023-04-21T03:35:33.525Z,2.08
2023-04-21T03:36:33.576Z,2.10
2023-04-21T03:37:33.634Z,1.94
2023-04-21T03:38:33.703Z,2.08
2023-04-21T03:39:34.127Z,2.02
2023-04-21T03:40:34.123Z,2.32
2023-04-21T03:41:34.166Z,2.21
2023-04-21T03:42:34.124Z,2.05
2023-04-21T03:43:34.121Z,1.98
2023-04-21T03:44:34.123Z,2.36
2023-04-21T03:45:34.146Z,2.44
2023-04-21T03:46:34.372Z,2.29
2023-04-21T03:47:34.304Z,2.38
2023-04-21T03:48:34.321Z,2.06
2023-04-21T03:49:34.389Z,2.18
2023-04-21T03:50:34.440Z,2.42
2023-04-21T03:51:34.509Z,1.99
2023-04-21T03:52:34.625Z,2.51
2023-04-21T03:53:34.624Z,1.92
2023-04-21T03:54:34.692Z,2.14
2023-04-21T03:55:34.747Z,2.14
2023-04-21T03:56:34.840Z,2.25
2023-04-21T03:57:34.930Z,2.36
2023-04-21T03:58:34.944Z,2.19
2023-04-21T03:59:35.009Z,2.32
2023-04-21T04:00:41.846Z,2.07
2023-04-21T04:01:35.055Z,2.10
2023-04-21T04:02:35.306Z,2.06
2023-04-21T04:03:35.317Z,2.46
2023-04-21T04:04:35.510Z,2.01
2023-04-21T04:05:35.113Z,2.30
2023-04-21T04:06:35.091Z,2.27
2023-04-21T04:07:35.090Z,2.29
2023-04-21T04:08:35.103Z,2.40
2023-04-21T04:09:35.116Z,2.57
2023-04-21T04:10:35.122Z,2.00
2023-04-21T04:11:35.131Z,2.38
2023-04-21T04:12:35.136Z,2.38
2023-04-21T04:13:35.165Z,2.13
2023-04-21T04:14:35.189Z,1.94
2023-04-21T04:15:35.274Z,2.18
2023-04-21T04:16:35.391Z,2.30
2023-04-21T04:17:35.457Z,2.44
2023-04-21T04:18:35.455Z,2.28
2023-04-21T04:19:35.507Z,2.21
2023-04-21T04:20:35.579Z,2.11
2023-04-21T04:21:35.629Z,1.98
2023-04-21T04:22:35.687Z,2.40
2023-04-21T04:23:35.761Z,1.84
2023-04-21T04:24:35.832Z,2.62
2023-04-21T04:25:35.869Z,2.41
2023-04-21T04:26:35.969Z,2.20
2023-04-21T04:27:35.974Z,2.23
2023-04-21T04:28:36.035Z,2.22
2023-04-21T04:29:36.105Z,2.16
2023-04-21T04:30:36.151Z,2.65
2023-04-21T04:31:36.250Z,2.41
2023-04-21T04:32:36.288Z,2.45
2023-04-21T04:33:36.341Z,2.43
2023-04-21T04:34:36.408Z,2.22
2023-04-21T04:35:36.467Z,2.73
2023-04-21T04:36:36.536Z,2.34
2023-04-21T04:37:36.577Z,1.97
2023-04-21T04:38:36.649Z,2.06
2023-04-21T04:39:36.713Z,2.15
2023-04-21T04:40:36.784Z,2.13
2023-04-21T04:41:36.848Z,2.06
2023-04-21T04:42:36.966Z,2.35
2023-04-21T04:43:36.981Z,2.02
2023-04-21T04:44:37.020Z,2.57
2023-04-21T04:45:37.144Z,2.85
2023-04-21T04:46:37.215Z,2.56
2023-04-21T04:47:37.241Z,2.44
2023-04-21T04:48:37.293Z,2.35
2023-04-21T04:49:37.347Z,2.44
2023-04-21T04:50:37.461Z,2.30
2023-04-21T04:51:37.480Z,2.09
2023-04-21T04:52:38.377Z,2.66
2023-04-21T04:53:37.587Z,2.57
2023-04-21T04:54:37.639Z,2.42
2023-04-21T04:55:37.702Z,2.63
2023-04-21T04:56:37.762Z,2.34
2023-04-21T04:57:37.818Z,2.43
2023-04-21T04:58:40.870Z,2.39
2023-04-21T04:59:37.890Z,2.04
2023-04-21T05:00:37.902Z,2.14
2023-04-21T05:01:37.978Z,2.65
2023-04-21T05:02:38.084Z,2.67
2023-04-21T05:03:38.062Z,2.58
2023-04-21T05:04:38.079Z,2.24
2023-04-21T05:05:37.939Z,2.18
2023-04-21T05:06:37.934Z,2.27
2023-04-21T05:07:37.958Z,2.34
2023-04-21T05:08:37.937Z,2.62
2023-04-21T05:09:37.947Z,2.48
2023-04-21T05:10:37.979Z,2.62
2023-04-21T05:11:37.974Z,2.44
2023-04-21T05:12:39.198Z,2.62
2023-04-21T05:13:40.033Z,2.69
2023-04-21T05:14:37.987Z,1.82
2023-04-21T05:15:39.190Z,2.33
2023-04-21T05:16:38.105Z,2.27
2023-04-21T05:17:38.157Z,2.37
2023-04-21T05:18:38.010Z,2.32
2023-04-21T05:19:38.016Z,2.24
2023-04-21T05:20:39.201Z,2.35
2023-04-21T05:21:38.387Z,2.40
2023-04-21T05:22:39.188Z,2.48
2023-04-21T05:23:38.156Z,2.38
2023-04-21T05:24:38.233Z,2.32
2023-04-21T05:25:38.284Z,2.34
2023-04-21T05:26:38.378Z,2.07
2023-04-21T05:27:39.193Z,2.55
2023-04-21T05:28:38.476Z,2.34
2023-04-21T05:29:38.528Z,2.41
2023-04-21T05:30:41.379Z,2.39
2023-04-21T05:31:38.658Z,2.28
2023-04-21T05:32:38.767Z,2.35
2023-04-21T05:33:39.436Z,2.44
2023-04-21T05:34:38.597Z,3.19
2023-04-21T05:35:38.594Z,2.17
2023-04-21T05:36:39.608Z,2.34
2023-04-21T05:37:38.621Z,2.56
2023-04-21T05:38:39.195Z,2.57
2023-04-21T05:39:38.624Z,2.32
2023-04-21T05:40:38.623Z,2.19
2023-04-21T05:41:39.393Z,2.28
2023-04-21T05:42:38.630Z,2.44
2023-04-21T05:43:38.641Z,2.29
2023-04-21T05:44:38.649Z,2.68
2023-04-21T05:45:38.767Z,2.22
2023-04-21T05:46:39.544Z,2.22
2023-04-21T05:47:39.288Z,2.43
2023-04-21T05:48:39.195Z,2.60
2023-04-21T05:49:39.418Z,2.93
2023-04-21T05:50:39.189Z,2.50
2023-04-21T05:51:39.196Z,2.99
2023-04-21T05:52:39.195Z,2.39
2023-04-21T05:53:39.204Z,2.40
2023-04-21T05:54:39.389Z,2.11
2023-04-21T05:55:39.338Z,2.92
2023-04-21T05:56:39.384Z,2.43
2023-04-21T05:57:39.454Z,2.57
2023-04-21T05:58:39.512Z,2.36
2023-04-21T05:59:40.399Z,2.38
2023-04-21T06:00:49.030Z,2.84
2023-04-21T06:01:39.662Z,2.45
2023-04-21T06:02:39.873Z,2.60
2023-04-21T06:03:39.834Z,2.13
2023-04-21T06:04:40.415Z,2.59
2023-04-21T06:05:39.764Z,2.57
2023-04-21T06:06:40.150Z,2.45
2023-04-21T06:07:40.084Z,2.56
2023-04-21T06:08:39.691Z,2.69
2023-04-21T06:09:40.707Z,1.85
2023-04-21T06:10:40.078Z,2.53
2023-04-21T06:11:40.396Z,2.39
2023-04-21T06:12:40.127Z,2.77
2023-04-21T06:13:41.644Z,2.20
2023-04-21T06:14:40.396Z,2.70
2023-04-21T06:15:40.126Z,2.20
2023-04-21T06:16:40.527Z,2.28
2023-04-21T06:17:40.183Z,2.62
2023-04-21T06:18:40.131Z,2.53
2023-04-21T06:19:41.888Z,2.63
2023-04-21T06:20:40.410Z,2.51
2023-04-21T06:21:40.422Z,1.94
2023-04-21T06:22:40.432Z,2.49
2023-04-21T06:23:40.123Z,2.42
2023-04-21T06:24:40.120Z,2.64
2023-04-21T06:25:40.127Z,2.51
2023-04-21T06:26:40.124Z,2.41
2023-04-21T06:27:40.125Z,2.77
2023-04-21T06:28:40.142Z,2.72
2023-04-21T06:29:40.119Z,2.63
2023-04-21T06:30:40.120Z,2.40
2023-04-21T06:31:40.183Z,2.51
2023-04-21T06:32:40.477Z,2.63
2023-04-21T06:33:40.129Z,2.42
2023-04-21T06:34:40.118Z,2.29
2023-04-21T06:35:40.124Z,2.70
2023-04-21T06:36:40.404Z,2.63
2023-04-21T06:37:40.929Z,2.25
2023-04-21T06:38:40.138Z,2.41
2023-04-21T06:39:40.121Z,2.60
2023-04-21T06:40:40.127Z,2.66
2023-04-21T06:41:40.765Z,2.41
2023-04-21T06:42:40.412Z,2.72
2023-04-21T06:43:40.248Z,2.36
2023-04-21T06:44:40.304Z,2.26
2023-04-21T06:45:43.603Z,2.68
2023-04-21T06:46:40.721Z,2.21
2023-04-21T06:47:40.873Z,2.36
2023-04-21T06:48:40.932Z,2.96
2023-04-21T06:49:43.939Z,2.49
2023-04-21T06:50:41.073Z,2.49
2023-04-21T06:51:40.545Z,2.79
2023-04-21T06:52:40.970Z,2.67
2023-04-21T06:53:40.447Z,2.50
2023-04-21T06:54:40.421Z,2.23
2023-04-21T06:55:40.471Z,2.66
2023-04-21T06:56:40.471Z,2.02
2023-04-21T06:57:40.463Z,2.69
2023-04-21T06:58:40.466Z,2.06
2023-04-21T06:59:40.482Z,2.56
2023-04-21T07:00:40.572Z,2.68
2023-04-21T07:01:40.951Z,2.50
2023-04-21T07:02:41.091Z,2.79
2023-04-21T07:03:40.594Z,2.15
2023-04-21T07:04:40.563Z,2.64
2023-04-21T07:05:40.526Z,2.77
2023-04-21T07:06:41.124Z,2.48
2023-04-21T07:07:40.920Z,2.26
2023-04-21T07:08:41.274Z,2.65
2023-04-21T07:09:40.732Z,2.27
2023-04-21T07:10:41.424Z,2.55
2023-04-21T07:11:40.828Z,2.64
2023-04-21T07:12:40.898Z,2.32
2023-04-21T07:13:40.951Z,2.98
2023-04-21T07:14:41.020Z,2.74
2023-04-21T07:15:41.082Z,2.75
2023-04-21T07:16:41.470Z,2.90
2023-04-21T07:17:41.240Z,2.58
2023-04-21T07:18:41.423Z,2.54
2023-04-21T07:19:41.355Z,2.59
2023-04-21T07:20:41.379Z,2.65
2023-04-21T07:21:41.949Z,2.89
2023-04-21T07:22:41.551Z,2.77
2023-04-21T07:23:41.553Z,3.03
2023-04-21T07:24:41.727Z,3.05
2023-04-21T07:25:41.861Z,2.27
2023-04-21T07:26:41.996Z,2.15
2023-04-21T07:27:41.951Z,2.10
2023-04-21T07:28:41.877Z,2.25
2023-04-21T07:29:41.924Z,2.73
2023-04-21T07:30:42.504Z,2.63
2023-04-21T07:31:42.130Z,3.14
2023-04-21T07:32:43.011Z,2.32
2023-04-21T07:33:42.190Z,2.68
2023-04-21T07:34:42.268Z,2.98
2023-04-21T07:35:42.434Z,2.58
2023-04-21T07:36:42.356Z,2.28
2023-04-21T07:37:42.413Z,2.65
2023-04-21T07:38:43.136Z,2.50
2023-04-21T07:39:42.955Z,2.46
2023-04-21T07:40:42.622Z,2.70
2023-04-21T07:41:42.956Z,2.52
2023-04-21T07:42:43.209Z,2.21
2023-04-21T07:43:43.367Z,2.26
2023-04-21T07:44:43.289Z,2.27
2023-04-21T07:45:43.339Z,2.13
2023-04-21T07:46:43.556Z,2.65
2023-04-21T07:47:43.521Z,2.36
2023-04-21T07:48:43.423Z,2.75
2023-04-21T07:49:43.343Z,2.64
2023-04-21T07:50:43.548Z,2.25
2023-04-21T07:51:44.264Z,2.49
2023-04-21T07:52:44.549Z,2.68
2023-04-21T07:53:43.926Z,2.69
2023-04-21T07:54:43.706Z,3.18
2023-04-21T07:55:43.718Z,3.10
2023-04-21T07:56:43.895Z,2.94
2023-04-21T07:57:44.333Z,3.42
2023-04-21T07:58:44.275Z,2.95
2023-04-21T07:59:43.985Z,2.72
2023-04-21T08:00:43.701Z,3.23
2023-04-21T08:01:44.045Z,3.34
2023-04-21T08:02:44.139Z,3.24
2023-04-21T08:03:44.102Z,3.45
2023-04-21T08:04:43.974Z,3.56
2023-04-21T08:05:44.226Z,2.45
2023-04-21T08:06:44.305Z,2.80
2023-04-21T08:07:44.170Z,2.80
2023-04-21T08:08:44.245Z,2.95
2023-04-21T08:09:43.950Z,3.27
2023-04-21T08:10:44.205Z,2.77
2023-04-21T08:11:44.127Z,3.17
2023-04-21T08:12:44.226Z,3.31
2023-04-21T08:13:44.139Z,2.99
2023-04-21T08:14:44.160Z,2.80
2023-04-21T08:15:44.181Z,2.98
2023-04-21T08:16:44.508Z,3.06
2023-04-21T08:17:44.306Z,2.42
2023-04-21T08:18:44.408Z,3.57
2023-04-21T08:19:44.478Z,3.38
2023-04-21T08:20:44.643Z,3.14
2023-04-21T08:21:44.546Z,2.42
2023-04-21T08:22:47.284Z,2.88
2023-04-21T08:23:45.138Z,2.70
2023-04-21T08:24:44.597Z,3.29
2023-04-21T08:25:44.591Z,2.59
2023-04-21T08:26:44.564Z,2.67
2023-04-21T08:27:44.501Z,2.64
2023-04-21T08:28:44.715Z,2.56
2023-04-21T08:29:44.650Z,2.50
2023-04-21T08:30:44.508Z,2.96
2023-04-21T08:31:44.613Z,2.90
2023-04-21T08:32:45.180Z,2.99
2023-04-21T08:33:57.938Z,2.82
2023-04-21T08:34:44.530Z,2.86
2023-04-21T08:35:59.319Z,3.30
2023-04-21T08:36:44.605Z,2.98
2023-04-21T08:37:44.679Z,3.15
2023-04-21T08:38:45.502Z,2.78
2023-04-21T08:39:44.495Z,2.95
2023-04-21T08:40:44.417Z,2.68
2023-04-21T08:41:44.483Z,2.92
2023-04-21T08:42:44.592Z,3.17
2023-04-21T08:43:44.674Z,2.98
2023-04-21T08:44:44.554Z,3.45
2023-04-21T08:45:44.704Z,3.16
2023-04-21T08:46:44.573Z,3.09
2023-04-21T08:47:44.869Z,2.78
2023-04-21T08:48:44.697Z,3.28
2023-04-21T08:49:44.803Z,3.78
2023-04-21T08:50:44.502Z,3.05
2023-04-21T08:51:44.966Z,3.09
2023-04-21T08:52:45.302Z,3.50
2023-04-21T08:53:44.682Z,2.88
2023-04-21T08:54:47.454Z,3.03
2023-04-21T08:55:45.427Z,2.98
2023-04-21T08:56:45.192Z,3.18
2023-04-21T08:57:45.198Z,2.99
2023-04-21T08:58:45.744Z,3.41
2023-04-21T08:59:44.688Z,2.79
2023-04-21T09:00:44.726Z,3.24
2023-04-21T09:01:44.737Z,3.05
2023-04-21T09:02:45.705Z,3.38
2023-04-21T09:03:45.602Z,4.22
2023-04-21T09:04:45.394Z,3.05
2023-04-21T09:05:52.336Z,3.66
2023-04-21T09:06:44.744Z,3.65
2023-04-21T09:07:44.718Z,4.09
2023-04-21T09:08:45.457Z,4.17
2023-04-21T09:09:45.192Z,4.08
2023-04-21T09:10:47.959Z,3.75
2023-04-21T09:11:45.201Z,3.63
2023-04-21T09:12:44.704Z,3.92
2023-04-21T09:13:44.711Z,3.54
2023-04-21T09:14:44.707Z,3.84
2023-04-21T09:15:44.704Z,3.79
2023-04-21T09:16:45.234Z,3.83
2023-04-21T09:17:45.239Z,3.16
2023-04-21T09:18:44.716Z,3.71
2023-04-21T09:19:44.715Z,3.67
2023-04-21T09:20:44.720Z,4.23
2023-04-21T09:21:45.190Z,3.50
2023-04-21T09:22:45.188Z,3.25
2023-04-21T09:23:45.468Z,3.39
2023-04-21T09:24:45.475Z,3.74
2023-04-21T09:25:45.462Z,4.09
2023-04-21T09:26:44.708Z,3.18
2023-04-21T09:27:45.205Z,3.94
2023-04-21T09:28:44.718Z,4.37
2023-04-21T09:29:45.192Z,4.18
2023-04-21T09:30:44.758Z,3.76
2023-04-21T09:31:44.800Z,3.67
2023-04-21T09:32:44.778Z,4.03
2023-04-21T09:34:43.996Z,3.60
2023-04-21T09:35:44.678Z,4.42
2023-04-21T09:36:45.191Z,4.01
2023-04-21T09:37:45.196Z,4.20
2023-04-21T09:38:45.651Z,3.98
2023-04-21T09:39:53.102Z,4.22
2023-04-21T09:40:45.720Z,3.36
2023-04-21T09:41:45.199Z,4.02
2023-04-21T09:42:45.292Z,3.99
2023-04-21T09:43:52.104Z,4.00
2023-04-21T09:44:52.374Z,4.14
2023-04-21T09:45:45.063Z,4.05
2023-04-21T09:46:45.362Z,4.25
2023-04-21T09:47:44.705Z,4.44
2023-04-21T09:48:45.198Z,4.58
2023-04-21T09:49:45.501Z,4.74
2023-04-21T09:51:11.474Z,3.88
2023-04-21T09:52:44.467Z,3.97
2023-04-21T09:53:45.192Z,4.36
2023-04-21T09:54:44.667Z,3.90
2023-04-21T09:55:44.646Z,3.94
2023-04-21T09:56:44.674Z,3.84
2023-04-21T09:57:44.654Z,4.08
2023-04-21T09:58:45.199Z,5.21
2023-04-21T09:59:44.654Z,4.13
2023-04-21T10:00:44.718Z,3.97
2023-04-21T10:01:44.736Z,4.28
2023-04-21T10:02:44.866Z,4.25
2023-04-21T10:03:45.315Z,4.08
2023-04-21T10:04:45.879Z,4.10
2023-04-21T10:05:45.269Z,4.66
2023-04-21T10:06:45.195Z,4.29
2023-04-21T10:07:45.196Z,3.91
2023-04-21T10:08:45.511Z,3.89
2023-04-21T10:09:45.195Z,3.58
2023-04-21T10:10:45.191Z,3.86
2023-04-21T10:11:45.191Z,4.16
2023-04-21T10:12:45.225Z,4.49
2023-04-21T10:13:45.518Z,3.79
2023-04-21T10:14:45.252Z,3.94
2023-04-21T10:15:45.215Z,4.32
2023-04-21T10:16:47.998Z,3.72
2023-04-21T10:17:46.060Z,3.33
2023-04-21T10:18:45.511Z,3.80
2023-04-21T10:19:45.524Z,3.34
2023-04-21T10:20:45.207Z,3.68
2023-04-21T10:21:45.234Z,3.60
2023-04-21T10:22:45.205Z,3.21
2023-04-21T10:23:45.502Z,4.16
2023-04-21T10:24:45.217Z,3.41
2023-04-21T10:25:45.210Z,4.01
2023-04-21T10:26:47.993Z,4.00
2023-04-21T10:27:45.211Z,4.46
2023-04-21T10:28:45.543Z,4.13
2023-04-21T10:29:56.000Z,3.65
2023-04-21T10:30:45.194Z,3.60
2023-04-21T10:31:45.228Z,4.21
2023-04-21T10:32:45.612Z,4.53
2023-04-21T10:33:45.187Z,4.11
2023-04-21T10:34:45.220Z,4.32
2023-04-21T10:35:45.995Z,4.19
2023-04-21T10:36:45.192Z,4.40
2023-04-21T10:37:45.229Z,4.15
2023-04-21T10:38:45.520Z,4.52
2023-04-21T10:39:45.222Z,3.87
2023-04-21T10:40:45.216Z,3.57
2023-04-21T10:41:45.216Z,3.33
2023-04-21T10:42:45.265Z,3.79
2023-04-21T10:43:48.176Z,4.13
2023-04-21T10:44:45.215Z,4.36
2023-04-21T10:45:45.215Z,4.39
2023-04-21T10:46:45.256Z,4.06
2023-04-21T10:47:45.310Z,4.06
2023-04-21T10:48:45.530Z,4.14
2023-04-21T10:49:45.191Z,3.66
2023-04-21T10:50:46.001Z,4.36
2023-04-21T10:51:45.249Z,4.23
2023-04-21T10:52:48.035Z,4.16
2023-04-21T10:53:45.504Z,4.04
2023-04-21T10:54:46.333Z,3.96
2023-04-21T10:55:45.299Z,3.68
2023-04-21T10:56:45.313Z,3.85
2023-04-21T10:57:46.040Z,4.16
2023-04-21T10:58:45.309Z,4.25
2023-04-21T10:59:45.324Z,4.43
2023-04-21T11:00:45.357Z,4.01
2023-04-21T11:01:45.343Z,3.98
2023-04-21T11:02:45.482Z,4.20
2023-04-21T11:03:45.606Z,3.74
2023-04-21T11:04:46.357Z,3.66
2023-04-21T11:05:45.392Z,3.68
2023-04-21T11:06:46.010Z,3.87
2023-04-21T11:07:45.504Z,4.01
2023-04-21T11:08:46.537Z,3.96
2023-04-21T11:09:46.006Z,3.76
2023-04-21T11:10:45.628Z,3.82
2023-04-21T11:11:46.509Z,3.80
2023-04-21T11:12:46.513Z,3.88
2023-04-21T11:13:45.745Z,4.10
2023-04-21T11:14:46.014Z,3.75
2023-04-21T11:15:45.825Z,3.78
2023-04-21T11:16:48.567Z,4.09
2023-04-21T11:17:46.112Z,3.74
2023-04-21T11:18:45.880Z,4.19
2023-04-21T11:19:46.021Z,3.59
2023-04-21T11:20:45.895Z,3.54
2023-04-21T11:21:45.914Z,3.66
2023-04-21T11:22:46.046Z,3.75
2023-04-21T11:23:52.531Z,3.88
2023-04-21T11:24:46.015Z,3.67
2023-04-21T11:25:45.918Z,4.17
2023-04-21T11:26:52.516Z,3.68
2023-04-21T11:27:45.923Z,3.47
2023-04-21T11:28:45.926Z,3.99
2023-04-21T11:29:46.038Z,4.02
2023-04-21T11:30:45.983Z,4.57
2023-04-21T11:31:45.951Z,3.79
2023-04-21T11:32:46.028Z,4.39
2023-04-21T11:33:46.012Z,3.77
2023-04-21T11:34:45.995Z,4.01
2023-04-21T11:35:46.023Z,5.23
2023-04-21T11:36:45.988Z,4.08
2023-04-21T11:37:46.020Z,4.86
2023-04-21T11:38:45.989Z,4.14
2023-04-21T11:39:46.004Z,5.01
2023-04-21T11:40:45.990Z,4.59
2023-04-21T11:41:46.009Z,4.26
2023-04-21T11:42:46.007Z,3.93
2023-04-21T11:43:46.526Z,4.03
2023-04-21T11:44:46.017Z,4.40
2023-04-21T11:45:46.529Z,4.39
2023-04-21T11:46:47.120Z,4.03
2023-04-21T11:47:46.057Z,3.61
2023-04-21T11:48:46.520Z,4.16
2023-04-21T11:49:46.087Z,4.94
2023-04-21T11:50:46.069Z,3.85
2023-04-21T11:51:46.073Z,4.18
2023-04-21T11:52:49.172Z,3.95
2023-04-21T11:53:48.168Z,3.85
2023-04-21T11:54:46.132Z,3.99
2023-04-21T11:55:46.166Z,4.25
2023-04-21T11:56:46.140Z,3.72
2023-04-21T11:57:46.151Z,3.89
2023-04-21T11:58:46.572Z,4.03
2023-04-21T11:59:46.180Z,3.99
2023-04-21T12:00:46.193Z,3.81
2023-04-21T12:01:49.159Z,3.64
2023-04-21T12:02:46.264Z,3.73
2023-04-21T12:03:46.720Z,4.09
2023-04-21T12:04:46.415Z,4.06
2023-04-21T12:05:46.242Z,4.05
2023-04-21T12:06:46.191Z,4.50
2023-04-21T12:07:46.203Z,3.65
2023-04-21T12:08:46.199Z,3.82
2023-04-21T12:09:46.200Z,3.63
2023-04-21T12:10:46.544Z,4.01
2023-04-21T12:11:47.352Z,3.15
2023-04-21T12:12:46.211Z,3.45
2023-04-21T12:13:46.227Z,3.51
2023-04-21T12:14:46.220Z,3.27
2023-04-21T12:15:46.247Z,3.93
2023-04-21T12:16:46.455Z,3.40
2023-04-21T12:17:47.060Z,3.04
2023-04-21T12:18:46.240Z,3.18
2023-04-21T12:19:53.031Z,3.59
2023-04-21T12:20:47.031Z,3.24
2023-04-21T12:21:46.225Z,3.56
2023-04-21T12:22:47.036Z,3.11
2023-04-21T12:23:46.543Z,3.94
2023-04-21T12:24:46.244Z,3.28
2023-04-21T12:25:47.029Z,3.46
2023-04-21T12:26:46.233Z,3.43
2023-04-21T12:27:46.251Z,3.77
2023-04-21T12:28:46.233Z,3.31
2023-04-21T12:29:46.225Z,3.36
2023-04-21T12:30:46.541Z,3.25
2023-04-21T12:31:46.236Z,3.35
2023-04-21T12:32:46.238Z,3.47
2023-04-21T12:33:46.325Z,2.95
2023-04-21T12:34:46.223Z,3.29
2023-04-21T12:35:46.546Z,3.36
2023-04-21T12:36:46.225Z,3.83
2023-04-21T12:37:46.226Z,3.47
2023-04-21T12:38:46.248Z,3.25
2023-04-21T12:39:46.223Z,3.08
2023-04-21T12:40:46.225Z,3.66
2023-04-21T12:41:46.268Z,2.96
2023-04-21T12:42:46.297Z,3.44
2023-04-21T12:43:46.384Z,3.18
2023-04-21T12:44:46.375Z,3.62
2023-04-21T12:45:46.420Z,3.63
2023-04-21T12:46:46.453Z,3.62
2023-04-21T12:47:47.098Z,2.92
2023-04-21T12:48:46.547Z,3.37
2023-04-21T12:49:47.558Z,3.53
2023-04-21T12:50:46.660Z,3.21
2023-04-21T12:51:46.643Z,3.24
2023-04-21T12:52:46.684Z,2.88
2023-04-21T12:53:46.717Z,3.46
2023-04-21T12:54:47.547Z,3.49
2023-04-21T12:55:56.837Z,3.05
2023-04-21T12:56:47.546Z,3.67
2023-04-21T12:57:46.788Z,3.29
2023-04-21T12:58:47.074Z,3.44
2023-04-21T12:59:46.823Z,3.14
2023-04-21T13:00:49.568Z,3.11
2023-04-21T13:01:46.874Z,2.89
2023-04-21T13:02:46.885Z,3.19
2023-04-21T13:03:46.915Z,2.57
2023-04-21T13:04:47.118Z,2.85
2023-04-21T13:05:46.795Z,2.97
2023-04-21T13:06:47.555Z,3.09
2023-04-21T13:07:47.573Z,3.14
2023-04-21T13:08:46.805Z,3.00
2023-04-21T13:09:46.820Z,3.50
2023-04-21T13:10:46.819Z,3.31
2023-04-21T13:11:46.810Z,3.09
2023-04-21T13:12:46.821Z,3.13
2023-04-21T13:13:46.827Z,3.17
2023-04-21T13:14:46.827Z,3.13
2023-04-21T13:15:47.084Z,2.63
2023-04-21T13:16:46.884Z,3.15
2023-04-21T13:17:46.850Z,3.29
2023-04-21T13:18:46.842Z,2.93
2023-04-21T13:19:46.903Z,2.79
2023-04-21T13:20:46.857Z,3.31